createdAt,value
2019-04-23T00:02:13.520Z,44.98
2019-04-23T00:04:42.922Z,41.95
2019-04-23T00:10:03.562Z,44.77
2019-04-23T00:12:43.652Z,44.67
2019-04-23T00:17:49.016Z,38.95
2019-04-23T00:20:37.450Z,38.50
2019-04-23T00:23:11.509Z,52.43
2019-04-23T00:26:12.864Z,47.55
2019-04-23T00:28:51.889Z,35.83
2019-04-23T00:34:04.214Z,42.95
2019-04-23T00:36:44.759Z,34.23
2019-04-23T00:39:29.853Z,41.28
2019-04-23T00:42:04.314Z,40.85
2019-04-23T00:44:38.118Z,33.70
2019-04-23T00:47:01.326Z,39.27
2019-04-23T00:49:40.082Z,41.55
2019-04-23T00:54:51.987Z,38.25
2019-04-23T00:57:25.380Z,31.80
2019-04-23T01:00:02.062Z,37.78
2019-04-23T01:02:34.871Z,40.98
2019-04-23T01:05:04.747Z,38.35
2019-04-23T01:07:33.596Z,37.30
2019-04-23T01:10:15.938Z,38.13
2019-04-23T01:12:51.608Z,40.85
2019-04-23T01:15:21.737Z,43.05
2019-04-23T01:20:38.233Z,40.75
2019-04-23T01:22:48.769Z,46.40
2019-04-23T01:25:39.598Z,37.63
2019-04-23T01:33:45.311Z,37.13
2019-04-23T01:39:08.475Z,46.02
2019-04-23T01:43:50.343Z,43.75
2019-04-23T01:46:29.146Z,47.23
2019-04-23T01:48:58.164Z,47.00
2019-04-23T01:51:39.942Z,48.85
2019-04-23T01:54:13.794Z,51.95
2019-04-23T01:56:40.012Z,49.27
2019-04-23T01:59:18.424Z,46.25
2019-04-23T02:04:28.661Z,44.75
2019-04-23T02:07:00.845Z,56.40
2019-04-23T02:09:40.191Z,48.95
2019-04-23T02:12:07.137Z,45.43
2019-04-23T02:14:41.700Z,50.05
2019-04-23T02:17:29.845Z,51.40
2019-04-23T02:19:46.163Z,50.38
2019-04-23T02:22:51.863Z,55.05
2019-04-23T02:25:42.273Z,57.95
2019-04-23T02:30:51.542Z,48.50
2019-04-23T02:33:29.320Z,46.92
2019-04-23T02:38:31.282Z,47.08
2019-04-23T02:41:03.700Z,49.63
2019-04-23T02:48:36.155Z,52.33
2019-04-23T02:51:04.784Z,47.23
2019-04-23T02:53:45.564Z,45.92
2019-04-23T02:56:12.152Z,57.03
2019-04-23T02:58:43.890Z,65.12
2019-04-23T03:03:49.602Z,44.10
2019-04-23T03:06:18.920Z,47.30
2019-04-23T03:11:38.481Z,42.23
2019-04-23T03:19:31.997Z,40.00
2019-04-23T03:22:15.625Z,45.80
2019-04-23T03:27:46.066Z,38.85
2019-04-23T03:30:30.091Z,40.80
2019-04-23T03:35:10.207Z,40.83
2019-04-23T03:37:58.226Z,34.40
2019-04-23T03:40:18.620Z,35.17
2019-04-23T03:45:56.419Z,33.73
2019-04-23T03:48:08.025Z,32.20
2019-04-23T03:53:14.087Z,34.75
2019-04-23T03:55:52.082Z,30.88
2019-04-23T03:58:18.941Z,33.85
2019-04-23T04:00:58.859Z,36.48
2019-04-23T04:03:50.257Z,34.80
2019-04-23T04:06:29.234Z,34.95
2019-04-23T04:08:37.130Z,33.55
2019-04-23T04:11:11.293Z,36.17
2019-04-23T04:16:19.407Z,35.88
2019-04-23T04:19:42.327Z,34.13
2019-04-23T04:22:13.528Z,37.95
2019-04-23T04:25:01.479Z,33.65
2019-04-23T04:32:59.119Z,31.30
2019-04-23T04:35:27.237Z,31.05
2019-04-23T04:41:00.091Z,32.80
2019-04-23T04:43:33.900Z,29.30
2019-04-23T04:46:14.009Z,29.00
2019-04-23T04:51:19.289Z,37.65
2019-04-23T04:56:29.155Z,35.65
2019-04-23T05:04:14.487Z,36.63
2019-04-23T05:06:51.260Z,34.50
2019-04-23T05:09:29.316Z,34.45
2019-04-23T05:14:13.118Z,30.10
2019-04-23T05:16:50.618Z,33.70
2019-04-23T05:19:40.805Z,34.43
2019-04-23T05:21:58.775Z,38.98
2019-04-23T05:24:31.719Z,34.35
2019-04-23T05:26:57.942Z,31.87
2019-04-23T05:29:34.368Z,29.95
2019-04-23T05:32:02.544Z,31.42
2019-04-23T05:34:35.715Z,37.67
2019-04-23T05:37:06.142Z,35.43
2019-04-23T05:39:39.797Z,42.38
2019-04-23T05:42:11.127Z,32.95
2019-04-23T05:44:50.206Z,30.82
2019-04-23T05:47:21.270Z,37.45
2019-04-23T05:49:54.604Z,40.15
2019-04-23T05:52:24.087Z,36.13
2019-04-23T05:54:57.543Z,36.60
2019-04-23T05:57:28.843Z,44.95
2019-04-23T06:00:02.434Z,45.33
2019-04-23T06:02:35.605Z,38.50
2019-04-23T06:05:03.816Z,34.92
2019-04-23T06:12:36.920Z,33.02
2019-04-23T06:15:11.112Z,33.58
2019-04-23T06:17:46.635Z,43.98
2019-04-23T06:20:31.618Z,35.63
2019-04-23T06:23:01.176Z,31.15
2019-04-23T06:28:01.331Z,29.92
2019-04-23T06:30:43.666Z,30.25
2019-04-23T06:33:09.010Z,32.67
2019-04-23T06:35:40.576Z,31.87
2019-04-23T06:40:41.851Z,27.20
2019-04-23T06:45:57.510Z,40.40
2019-04-23T06:48:38.056Z,33.42
2019-04-23T06:53:41.087Z,34.73
2019-04-23T06:56:14.447Z,28.27
2019-04-23T07:01:11.106Z,31.02
2019-04-23T07:03:50.343Z,30.95
2019-04-23T07:13:57.774Z,27.15
2019-04-23T07:16:31.467Z,28.47
2019-04-23T07:19:09.486Z,27.60
2019-04-23T07:21:39.271Z,26.12
2019-04-23T07:24:13.440Z,32.35
2019-04-23T07:26:39.089Z,28.85
2019-04-23T07:29:15.809Z,24.02
2019-04-23T07:31:48.381Z,24.43
2019-04-23T07:34:20.381Z,23.45
2019-04-23T07:36:56.162Z,22.45
2019-04-23T07:39:58.615Z,24.25
2019-04-23T07:42:41.981Z,21.70
2019-04-23T07:45:25.757Z,25.30
2019-04-23T07:48:19.594Z,20.30
2019-04-23T07:53:23.384Z,19.23
2019-04-23T08:05:59.132Z,22.55
2019-04-23T08:08:30.370Z,22.27
2019-04-23T08:13:47.761Z,18.42
2019-04-23T08:16:25.937Z,19.00
2019-04-23T08:24:14.968Z,19.23
2019-04-23T08:29:30.441Z,19.95
2019-04-23T08:32:13.902Z,20.95
2019-04-23T08:39:46.906Z,18.30
2019-04-23T08:42:36.575Z,16.57
2019-04-23T08:45:31.357Z,16.67
2019-04-23T08:48:32.826Z,18.90
2019-04-23T08:50:50.758Z,20.72
2019-04-23T08:55:53.659Z,17.17
2019-04-23T09:01:16.529Z,19.17
2019-04-23T09:03:52.670Z,15.80
2019-04-23T09:06:35.341Z,19.50
2019-04-23T09:09:21.904Z,14.90
2019-04-23T09:14:27.842Z,17.57
2019-04-23T09:22:29.365Z,16.80
2019-04-23T09:24:48.524Z,16.32
2019-04-23T09:30:06.901Z,18.52
2019-04-23T09:35:52.460Z,19.62
2019-04-23T09:38:38.328Z,16.52
2019-04-23T09:41:27.970Z,19.32
2019-04-23T09:44:51.050Z,17.02
2019-04-23T09:47:19.398Z,18.02
2019-04-23T09:49:46.676Z,18.07
2019-04-23T09:55:15.454Z,16.95
2019-04-23T09:57:47.135Z,17.02
2019-04-23T10:00:25.570Z,16.62
2019-04-23T10:02:41.136Z,24.12
2019-04-23T10:05:14.138Z,18.75
2019-04-23T10:07:46.929Z,16.05
2019-04-23T10:10:12.071Z,19.02
2019-04-23T10:12:44.180Z,18.73
2019-04-23T10:15:30.330Z,17.10
2019-04-23T10:18:00.382Z,17.42
2019-04-23T10:20:34.273Z,18.65
2019-04-23T10:23:06.319Z,19.35
2019-04-23T10:25:38.350Z,18.17
2019-04-23T10:28:35.915Z,17.50
2019-04-23T10:31:09.133Z,15.65
2019-04-23T10:34:04.366Z,15.55
2019-04-23T10:36:40.173Z,16.90
2019-04-23T10:39:21.583Z,17.15
2019-04-23T10:42:03.268Z,15.18
2019-04-23T10:45:40.815Z,17.27
2019-04-23T10:49:24.379Z,19.90
2019-04-23T10:51:33.876Z,15.83
2019-04-23T10:57:03.957Z,19.75
2019-04-23T10:59:44.655Z,16.70
2019-04-23T11:02:32.842Z,15.45
2019-04-23T11:04:57.374Z,16.25
2019-04-23T11:10:08.616Z,14.13
2019-04-23T11:13:09.344Z,20.85
2019-04-23T11:18:48.743Z,17.48
2019-04-23T11:21:28.578Z,14.98
2019-04-23T11:24:02.511Z,18.62
2019-04-23T11:26:37.061Z,17.02
2019-04-23T11:29:16.286Z,16.07
2019-04-23T11:34:26.636Z,16.80
2019-04-23T11:39:16.756Z,18.90
2019-04-23T11:41:51.349Z,15.45
2019-04-23T11:44:28.827Z,13.90
2019-04-23T11:54:30.666Z,16.97
2019-04-23T11:57:27.204Z,16.12
2019-04-23T12:02:17.043Z,19.07
2019-04-23T12:08:17.477Z,17.37
2019-04-23T12:11:26.359Z,18.95
2019-04-23T12:13:35.478Z,16.35
2019-04-23T12:16:04.387Z,15.08
2019-04-23T12:21:20.147Z,16.95
2019-04-23T12:26:33.330Z,19.67
2019-04-23T12:29:05.873Z,15.23
2019-04-23T12:31:37.904Z,19.92
2019-04-23T12:34:09.705Z,18.45
2019-04-23T12:36:46.793Z,16.35
2019-04-23T12:39:25.961Z,17.75
2019-04-23T12:42:05.748Z,18.98
2019-04-23T12:44:31.546Z,19.32
2019-04-23T12:47:05.543Z,15.78
2019-04-23T12:49:57.759Z,15.32
2019-04-23T12:52:12.147Z,16.23
2019-04-23T12:59:50.390Z,18.95
2019-04-23T13:02:27.441Z,16.82
2019-04-23T13:04:52.392Z,74.53
2019-04-23T13:07:36.932Z,18.55
2019-04-23T13:10:15.577Z,18.52
2019-04-23T13:12:50.296Z,17.75
2019-04-23T13:17:49.279Z,17.20
2019-04-23T13:22:54.884Z,17.42
2019-04-23T13:25:49.522Z,16.52
2019-04-23T13:33:42.067Z,16.10
2019-04-23T13:36:18.789Z,16.20
2019-04-23T13:39:05.324Z,19.17
2019-04-23T13:41:46.248Z,19.75
2019-04-23T13:44:15.784Z,15.25
2019-04-23T13:46:49.796Z,16.02
2019-04-23T13:49:16.366Z,16.82
2019-04-23T13:52:02.853Z,14.63
2019-04-23T13:54:46.359Z,16.48
2019-04-23T13:59:39.762Z,18.98
2019-04-23T14:02:04.078Z,15.50
2019-04-23T14:04:50.696Z,15.40
2019-04-23T14:07:33.756Z,18.87
2019-04-23T14:12:33.666Z,16.65
2019-04-23T14:20:15.324Z,15.50
2019-04-23T14:23:05.293Z,16.07
2019-04-23T14:25:10.258Z,16.57
2019-04-23T14:30:46.710Z,17.42
2019-04-23T14:33:20.696Z,17.77
2019-04-23T14:35:44.969Z,16.57
2019-04-23T14:38:23.443Z,17.35
2019-04-23T14:41:05.469Z,17.48
2019-04-23T14:46:45.563Z,17.42
2019-04-23T14:54:04.751Z,17.15
2019-04-23T14:56:44.562Z,18.75
2019-04-23T14:59:10.595Z,19.32
2019-04-23T15:01:47.716Z,16.90
2019-04-23T15:04:24.704Z,20.10
2019-04-23T15:07:01.002Z,17.52
2019-04-23T15:12:02.079Z,20.75
2019-04-23T15:14:37.533Z,18.55
2019-04-23T15:19:55.184Z,18.92
2019-04-23T15:22:41.519Z,16.87
2019-04-23T15:25:26.351Z,19.85
2019-04-23T15:28:05.317Z,20.55
2019-04-23T15:29:57.893Z,18.32
2019-04-23T15:38:10.694Z,15.13
2019-04-23T15:42:56.379Z,17.50
2019-04-23T15:45:21.007Z,22.00
2019-04-23T15:48:08.464Z,20.92
2019-04-23T15:55:35.080Z,16.37
2019-04-23T15:58:31.274Z,19.23
2019-04-23T16:00:42.277Z,19.52
2019-04-23T16:02:46.193Z,18.48
2019-04-23T16:05:23.129Z,19.25
2019-04-23T16:08:16.485Z,19.98
2019-04-23T16:11:06.886Z,16.80
2019-04-23T16:13:31.078Z,16.85
2019-04-23T16:16:08.887Z,16.75
2019-04-23T16:19:02.113Z,15.18
2019-04-23T16:21:35.895Z,18.55
2019-04-23T16:24:11.018Z,22.45
2019-04-23T16:26:47.451Z,17.87
2019-04-23T16:31:52.046Z,17.82
2019-04-23T16:39:39.119Z,15.40
2019-04-23T16:42:17.431Z,18.45
2019-04-23T16:47:18.587Z,16.67
2019-04-23T16:50:00.272Z,19.73
2019-04-23T16:52:24.554Z,23.05
2019-04-23T16:57:39.012Z,21.40
2019-04-23T17:02:45.117Z,17.23
2019-04-23T17:05:20.143Z,25.45
2019-04-23T17:07:53.335Z,18.20
2019-04-23T17:10:22.208Z,15.72
2019-04-23T17:12:59.726Z,18.35
2019-04-23T17:15:34.034Z,20.82
2019-04-23T17:18:15.345Z,28.65
2019-04-23T17:20:56.681Z,23.85
2019-04-23T17:23:52.323Z,18.35
2019-04-23T17:26:10.679Z,24.07
2019-04-23T17:28:44.888Z,22.07
2019-04-23T17:31:30.855Z,21.57
2019-04-23T17:34:01.156Z,18.32
2019-04-23T17:36:38.634Z,18.48
2019-04-23T17:39:42.963Z,22.77
2019-04-23T17:50:56.644Z,19.55
2019-04-23T17:53:25.263Z,23.30
2019-04-23T17:56:10.350Z,28.02
2019-04-23T17:58:35.111Z,24.65
2019-04-23T18:03:55.596Z,28.32
2019-04-23T18:06:37.690Z,25.97
2019-04-23T18:09:12.928Z,43.38
2019-04-23T18:11:31.207Z,25.00
2019-04-23T18:19:16.649Z,25.70
2019-04-23T18:22:35.583Z,28.60
2019-04-23T18:25:12.644Z,29.12
2019-04-23T18:27:47.965Z,24.10
2019-04-23T18:30:37.900Z,25.30
2019-04-23T18:36:11.544Z,26.20
2019-04-23T18:38:53.817Z,28.67
2019-04-23T18:41:34.382Z,29.02
2019-04-23T18:44:16.160Z,31.52
2019-04-23T18:46:42.134Z,31.68
2019-04-23T18:49:22.471Z,28.32
2019-04-23T18:51:51.271Z,29.35
2019-04-23T18:54:22.389Z,30.23
2019-04-23T18:59:46.422Z,27.45
2019-04-23T19:02:42.873Z,24.47
2019-04-23T19:05:34.026Z,27.27
2019-04-23T19:08:31.913Z,25.20
2019-04-23T19:11:37.168Z,24.27
2019-04-23T19:14:25.727Z,28.12
2019-04-23T19:17:29.180Z,26.15
2019-04-23T19:19:33.452Z,25.10
2019-04-23T19:24:55.123Z,37.90
2019-04-23T19:34:21.406Z,23.92
2019-04-23T19:37:06.065Z,25.70
2019-04-23T19:42:36.825Z,24.85
2019-04-23T19:46:02.023Z,27.67
2019-04-23T19:49:11.548Z,27.10
2019-04-23T19:51:59.502Z,30.55
2019-04-23T19:58:02.083Z,28.60
2019-04-23T20:00:52.070Z,24.15
2019-04-23T20:03:28.257Z,28.07
2019-04-23T20:09:05.164Z,23.67
2019-04-23T20:11:13.731Z,23.40
2019-04-23T20:13:54.215Z,22.15
2019-04-23T20:16:31.032Z,28.17
2019-04-23T20:18:55.492Z,25.82
2019-04-23T20:21:38.679Z,23.30
2019-04-23T20:24:20.752Z,24.27
2019-04-23T20:26:41.213Z,28.70
2019-04-23T20:29:54.804Z,24.67
2019-04-23T20:35:33.399Z,20.52
2019-04-23T20:40:53.969Z,29.12
2019-04-23T20:43:42.597Z,20.50
2019-04-23T20:46:14.867Z,22.87
2019-04-23T20:49:00.848Z,30.08
2019-04-23T20:51:47.825Z,28.80
2019-04-23T20:54:18.817Z,25.08
2019-04-23T20:56:51.089Z,28.77
2019-04-23T20:59:25.124Z,24.18
2019-04-23T21:02:13.623Z,24.80
2019-04-23T21:04:57.326Z,24.07
2019-04-23T21:07:28.304Z,23.35
2019-04-23T21:10:20.240Z,21.82
2019-04-23T21:12:57.898Z,23.10
2019-04-23T21:15:31.450Z,21.55
2019-04-23T21:17:58.128Z,23.02
2019-04-23T21:25:30.498Z,24.60
2019-04-23T21:31:42.772Z,25.17
2019-04-23T21:34:06.094Z,24.63
2019-04-23T21:37:06.282Z,23.90
2019-04-23T21:40:19.637Z,27.02
2019-04-23T21:45:13.917Z,27.32
2019-04-23T21:47:53.405Z,22.48
2019-04-23T21:55:34.836Z,29.87
2019-04-23T22:00:54.997Z,26.48
2019-04-23T22:03:29.307Z,25.88
2019-04-23T22:06:01.826Z,25.95
2019-04-23T22:08:26.524Z,26.45
2019-04-23T22:11:08.599Z,25.30
2019-04-23T22:13:41.574Z,24.80
2019-04-23T22:16:11.039Z,26.30
2019-04-23T22:18:55.897Z,26.55
2019-04-23T22:21:20.828Z,29.02
2019-04-23T22:24:02.466Z,24.45
2019-04-23T22:31:51.135Z,26.05
2019-04-23T22:34:33.967Z,24.25
2019-04-23T22:37:10.899Z,23.10
2019-04-23T22:39:45.706Z,24.52
2019-04-23T22:43:12.787Z,24.00
2019-04-23T22:45:43.135Z,29.50
2019-04-23T22:48:13.797Z,22.25
2019-04-23T22:50:57.441Z,27.52
2019-04-23T22:53:41.800Z,26.50
2019-04-23T22:56:20.874Z,24.98
2019-04-23T22:58:47.486Z,23.15
2019-04-23T23:04:04.571Z,23.00
2019-04-23T23:06:53.224Z,21.93
2019-04-23T23:12:07.774Z,23.57
2019-04-23T23:14:35.407Z,25.95
2019-04-23T23:17:42.446Z,25.75
2019-04-23T23:20:15.475Z,25.32
2019-04-23T23:22:58.447Z,24.72
2019-04-23T23:25:30.846Z,22.62
2019-04-23T23:28:06.822Z,21.82
2019-04-23T23:30:50.092Z,28.25
2019-04-23T23:33:13.793Z,25.40
2019-04-23T23:35:44.551Z,25.37
2019-04-23T23:38:24.057Z,27.15
2019-04-23T23:41:12.920Z,25.12
2019-04-23T23:44:07.624Z,25.55
2019-04-23T23:46:35.258Z,25.72
2019-04-23T23:49:11.103Z,27.07
2019-04-23T23:54:30.915Z,24.30
